Time;durP1;ratioP1;P1;durP2;ratioP2;P2;SDS_P1;SDS_P2;PMS_P1;PMS_P2;Temp;Humidity;BMP_temperature;BMP_pressure;BME280_temperature;BME280_humidity;BME280_pressure;Samples;Min_cycle;Max_cycle;Signal;HPM_P1;HPM_P2
2022/07/27 00:02:27;;;;;;;5.33;4.83;;;;;;;14.96;100.00;98874.48;4232727;83;21547;-83
2022/07/27 00:08:28;;;;;;;7.35;5.15;;;;;;;14.90;100.00;98869.80;4214723;82;21018;-83
2022/07/27 00:14:29;;;;;;;7.47;5.80;;;;;;;14.96;100.00;98866.21;4211685;83;21028;-84
2022/07/27 00:20:31;;;;;;;6.72;5.22;;;;;;;15.04;100.00;98868.30;4221600;82;21031;-83
2022/07/27 00:26:32;;;;;;;8.63;5.55;;;;;;;15.01;100.00;98865.78;4168852;83;21101;-83
2022/07/27 00:32:33;;;;;;;6.75;5.20;;;;;;;15.01;100.00;98867.16;4158227;84;21628;-83
2022/07/27 00:38:35;;;;;;;5.22;4.60;;;;;;;14.76;100.00;98877.59;4166037;85;21633;-82
2022/07/27 00:44:36;;;;;;;6.42;4.70;;;;;;;14.71;100.00;98881.36;4152189;84;21065;-83
2022/07/27 00:50:40;;;;;;;5.67;5.00;;;;;;;14.74;100.00;98878.59;4163459;84;21033;-83
2022/07/27 00:56:42;;;;;;;8.33;4.80;;;;;;;14.76;100.00;98874.84;4155487;84;21026;-83
2022/07/27 01:02:43;;;;;;;9.53;5.78;;;;;;;14.76;100.00;98876.22;4157945;83;21032;-83
2022/07/27 01:08:44;;;;;;;7.50;4.97;;;;;;;14.68;100.00;98868.40;4151316;84;21050;-83
2022/07/27 01:14:48;;;;;;;8.40;4.47;;;;;;;14.42;100.00;98876.66;4154076;84;21730;-84
2022/07/27 01:20:49;;;;;;;12.13;5.03;;;;;;;14.05;100.00;98877.21;4143915;84;21026;-83
2022/07/27 01:26:50;;;;;;;8.30;5.37;;;;;;;14.17;100.00;98871.85;4205222;83;21050;-82
2022/07/27 01:33:01;;;;;;;6.53;4.72;;;;;;;14.26;100.00;98876.35;4211202;83;21482;-83
2022/07/27 01:39:03;;;;;;;10.08;5.17;;;;;;;14.29;100.00;98877.50;4205709;83;21101;-83
2022/07/27 01:45:05;;;;;;;7.87;4.85;;;;;;;14.35;100.00;98874.52;4216703;83;21014;-82
2022/07/27 01:51:07;;;;;;;11.12;5.58;;;;;;;14.26;100.00;98870.05;4213059;83;21034;-83
2022/07/27 01:57:08;;;;;;;5.75;4.85;;;;;;;13.98;100.00;98876.47;4212469;83;21082;-82
2022/07/27 02:03:11;;;;;;;7.78;4.78;;;;;;;13.81;100.00;98872.58;4212802;83;21098;-83
2022/07/27 02:09:13;;;;;;;7.92;4.83;;;;;;;13.91;100.00;98876.48;4213580;82;21102;-82
2022/07/27 02:15:19;;;;;;;7.65;5.55;;;;;;;13.58;100.00;98871.48;4213933;83;21046;-83
2022/07/27 02:21:20;;;;;;;7.87;5.22;;;;;;;13.43;100.00;98874.88;4216248;83;20990;-82
2022/07/27 02:27:22;;;;;;;6.95;5.92;;;;;;;13.41;100.00;98866.23;4215703;82;21077;-83
2022/07/27 02:33:23;;;;;;;5.97;5.08;;;;;;;13.35;100.00;98876.65;4208324;83;21567;-82
2022/07/27 02:39:26;;;;;;;7.40;6.03;;;;;;;13.37;100.00;98891.59;4204604;83;21546;-82
2022/07/27 02:45:27;;;;;;;9.70;6.20;;;;;;;13.42;100.00;98888.41;4207741;83;21054;-82
2022/07/27 02:51:30;;;;;;;9.83;5.70;;;;;;;13.19;100.00;98891.39;4215319;83;21523;-81
2022/07/27 02:57:34;;;;;;;8.08;5.90;;;;;;;13.15;100.00;98896.13;4211853;82;21038;-82
2022/07/27 03:03:37;;;;;;;9.75;5.75;;;;;;;13.32;100.00;98900.23;4252352;83;21036;-82
2022/07/27 03:09:38;;;;;;;6.80;6.12;;;;;;;13.42;100.00;98906.90;4216415;83;21079;-82
2022/07/27 03:15:40;;;;;;;8.25;5.53;;;;;;;13.54;100.00;98905.09;4210329;83;21054;-82
2022/07/27 03:21:41;;;;;;;9.33;5.62;;;;;;;13.63;100.00;98915.09;4217531;83;21006;-83
2022/07/27 03:27:42;;;;;;;9.98;5.65;;;;;;;13.56;100.00;98917.88;4212947;83;21482;-82
2022/07/27 03:33:43;;;;;;;7.05;5.40;;;;;;;13.44;100.00;98914.94;4207193;83;20983;-82
2022/07/27 03:39:45;;;;;;;9.88;5.10;;;;;;;13.26;100.00;98914.19;4209620;83;20963;-82
2022/07/27 03:45:47;;;;;;;6.47;4.75;;;;;;;13.39;100.00;98924.19;4219326;83;21404;-82
2022/07/27 03:51:49;;;;;;;9.48;6.05;;;;;;;13.52;100.00;98937.12;4237327;83;21044;-82
2022/07/27 03:57:51;;;;;;;9.78;5.95;;;;;;;13.35;100.00;98920.06;4209608;83;21087;-83
2022/07/27 04:03:52;;;;;;;6.85;5.75;;;;;;;13.34;100.00;98932.22;4209130;83;21098;-83
2022/07/27 04:09:53;;;;;;;8.90;5.92;;;;;;;13.42;100.00;98931.64;4209884;83;21023;-82
2022/07/27 04:15:56;;;;;;;7.65;6.75;;;;;;;13.52;100.00;98942.63;4209578;83;21649;-82
2022/07/27 04:21:57;;;;;;;7.47;6.00;;;;;;;13.49;100.00;98939.29;4211132;83;21894;-83
2022/07/27 04:28:00;;;;;;;10.55;8.18;;;;;;;13.61;100.00;98936.70;4228849;82;21082;-82
2022/07/27 04:34:02;;;;;;;12.13;8.25;;;;;;;13.72;100.00;98938.83;4219291;83;21133;-83
2022/07/27 04:40:06;;;;;;;10.95;6.85;;;;;;;13.80;100.00;98939.81;4216088;83;21087;-83
2022/07/27 04:46:08;;;;;;;10.80;7.10;;;;;;;13.91;100.00;98930.93;4222105;83;21378;-82
2022/07/27 04:52:09;;;;;;;9.08;6.65;;;;;;;14.07;100.00;98944.24;4228277;83;21035;-82
2022/07/27 04:58:13;;;;;;;10.55;7.37;;;;;;;14.14;100.00;98949.73;4223622;82;21023;-83
2022/07/27 05:04:14;;;;;;;9.15;6.95;;;;;;;14.28;100.00;98959.34;4223578;83;21103;-82
2022/07/27 05:10:16;;;;;;;7.87;7.08;;;;;;;14.32;100.00;98960.10;4219701;83;21001;-82
2022/07/27 05:16:18;;;;;;;9.98;7.05;;;;;;;14.41;100.00;98954.94;4222307;83;21048;-83
2022/07/27 05:22:19;;;;;;;8.05;7.25;;;;;;;14.51;100.00;98956.86;4224714;83;21685;-82
2022/07/27 05:28:20;;;;;;;13.55;8.38;;;;;;;14.67;100.00;98961.89;4215474;82;21094;-82
2022/07/27 05:34:21;;;;;;;9.13;6.95;;;;;;;14.82;100.00;98966.91;4206256;83;21074;-82
2022/07/27 05:40:23;;;;;;;13.03;7.20;;;;;;;15.03;100.00;98977.02;4246511;82;20999;-82
2022/07/27 05:46:24;;;;;;;12.28;7.97;;;;;;;15.20;100.00;98982.99;4211470;83;21019;-81
2022/07/27 05:52:25;;;;;;;16.40;12.07;;;;;;;15.37;100.00;98973.20;4229483;82;21048;-81
2022/07/27 05:58:28;;;;;;;18.35;11.55;;;;;;;15.53;100.00;98970.70;4192514;81;82301;-82
2022/07/27 06:04:29;;;;;;;19.37;15.98;;;;;;;15.66;100.00;98977.88;4125244;86;21675;-81
2022/07/27 06:10:33;;;;;;;20.90;16.17;;;;;;;15.78;100.00;98987.64;4111848;86;21112;-82
2022/07/27 06:16:35;;;;;;;22.13;17.52;;;;;;;15.88;100.00;98992.28;4150230;85;21010;-81
2022/07/27 06:22:57;;;;;;;24.18;18.75;;;;;;;16.08;100.00;99005.08;4099696;86;21026;-81
2022/07/27 06:29:00;;;;;;;30.57;19.55;;;;;;;16.20;100.00;99013.42;4135545;85;21038;-80
2022/07/27 06:35:02;;;;;;;29.18;21.95;;;;;;;16.32;100.00;99006.77;4147693;85;21047;-83
2022/07/27 06:41:03;;;;;;;33.38;22.77;;;;;;;16.41;100.00;99009.05;4148492;85;21352;-84
2022/07/27 06:47:04;;;;;;;29.75;23.20;;;;;;;16.48;100.00;99005.63;4148445;85;21129;-82
2022/07/27 06:53:06;;;;;;;34.88;23.45;;;;;;;16.59;100.00;98997.98;4139550;85;20987;-81
2022/07/27 06:59:07;;;;;;;34.83;23.30;;;;;;;16.74;100.00;99000.73;4133701;85;21550;-82
2022/07/27 07:05:09;;;;;;;39.33;26.02;;;;;;;16.82;100.00;98994.50;4149547;85;20989;-83
2022/07/27 07:11:10;;;;;;;37.85;24.85;;;;;;;16.87;100.00;99010.03;4133999;84;21091;-83
2022/07/27 07:17:12;;;;;;;33.30;23.65;;;;;;;16.95;100.00;99014.86;4148115;85;21143;-80
2022/07/27 07:23:13;;;;;;;35.15;26.48;;;;;;;17.01;100.00;99015.36;4146153;85;21583;-82
2022/07/27 07:29:15;;;;;;;38.67;26.35;;;;;;;17.14;100.00;99030.79;4121774;85;21870;-81
2022/07/27 07:35:16;;;;;;;33.73;24.55;;;;;;;17.18;100.00;99025.98;4157260;85;21042;-81
2022/07/27 07:41:18;;;;;;;31.55;23.30;;;;;;;17.21;100.00;99028.70;4144502;85;20999;-82
2022/07/27 07:47:19;;;;;;;34.98;25.27;;;;;;;17.31;100.00;99033.09;4146785;85;21095;-83
2022/07/27 07:53:22;;;;;;;37.03;25.20;;;;;;;17.36;100.00;99043.70;4152450;85;21051;-81
2022/07/27 07:59:24;;;;;;;29.67;23.00;;;;;;;17.38;100.00;99055.93;4139768;85;21096;-81
2022/07/27 08:05:26;;;;;;;35.13;24.35;;;;;;;17.49;100.00;99057.97;4142096;85;21006;-82
2022/07/27 08:11:27;;;;;;;32.23;23.22;;;;;;;17.76;100.00;99051.77;4149134;85;21087;-83
2022/07/27 08:17:28;;;;;;;32.30;24.87;;;;;;;18.25;100.00;99055.65;4146010;85;21543;-82
2022/07/27 08:23:30;;;;;;;27.62;23.65;;;;;;;18.97;100.00;99051.84;4110748;85;21589;-82
2022/07/27 08:29:32;;;;;;;27.10;21.80;;;;;;;19.09;100.00;99043.47;4108262;85;21137;-82
2022/07/27 08:35:34;;;;;;;28.35;21.93;;;;;;;19.21;99.55;99046.95;4115906;85;21097;-83
2022/07/27 08:41:39;;;;;;;27.80;21.35;;;;;;;19.31;99.58;99054.30;4110465;85;21113;-84
2022/07/27 08:47:43;;;;;;;27.67;20.80;;;;;;;19.58;99.33;99053.43;4112401;85;21063;-83
2022/07/27 08:53:46;;;;;;;28.30;21.80;;;;;;;19.75;98.34;99053.00;4109577;85;21076;-82
2022/07/27 08:59:47;;;;;;;25.30;19.87;;;;;;;19.96;97.21;99048.31;4116200;85;21609;-83
2022/07/27 09:05:53;;;;;;;23.90;18.55;;;;;;;20.07;96.53;99046.64;4147018;85;21050;-82
2022/07/27 09:12:06;;;;;;;29.35;22.67;;;;;;;20.27;95.96;99047.32;4114584;85;21092;-83
2022/07/27 09:18:18;;;;;;;25.68;20.82;;;;;;;20.47;95.30;99049.97;4101736;85;21042;-82
2022/07/27 09:24:21;;;;;;;25.23;20.52;;;;;;;20.72;94.61;99048.66;4107341;85;21086;-83
2022/07/27 09:30:22;;;;;;;22.70;19.98;;;;;;;20.73;94.41;99039.08;4142603;85;20992;-83
2022/07/27 09:36:27;;;;;;;23.10;19.87;;;;;;;21.08;93.90;99036.68;4150295;84;21464;-82
2022/07/27 09:42:28;;;;;;;26.23;19.20;;;;;;;21.56;93.58;99019.63;4160305;85;21071;-83
2022/07/27 09:48:33;;;;;;;20.32;17.17;;;;;;;21.83;92.04;99017.77;4164712;85;21023;-83
2022/07/27 09:54:45;;;;;;;17.80;16.00;;;;;;;22.14;91.07;99014.50;4171616;85;21026;-83
2022/07/27 10:00:58;;;;;;;18.17;12.23;;;;;;;22.90;90.94;99005.30;4145792;85;21039;-85
2022/07/27 10:07:00;;;;;;;13.95;11.73;;;;;;;23.53;87.79;99009.02;4154302;85;21031;-85
2022/07/27 10:13:02;;;;;;;16.97;14.45;;;;;;;23.17;87.13;99013.03;4152057;85;21074;-83
2022/07/27 10:19:35;;;;;;;18.05;15.35;;;;;;;23.75;87.34;99011.09;4127042;85;21134;-85
2022/07/27 10:25:36;;;;;;;14.80;12.85;;;;;;;23.93;85.57;99006.91;4112980;85;21102;-84
2022/07/27 10:31:40;;;;;;;14.93;10.03;;;;;;;24.06;84.31;99012.39;4151710;85;21043;-85
2022/07/27 10:38:14;;;;;;;14.55;8.98;;;;;;;24.48;83.66;99011.92;4130101;85;26201;-84
2022/07/27 10:44:25;;;;;;;11.03;6.80;;;;;;;25.21;81.57;99008.37;4143139;85;21013;-83
2022/07/27 10:50:30;;;;;;;10.20;6.83;;;;;;;24.92;79.01;99023.56;4165751;85;21831;-85
2022/07/27 11:03:38;;;;;;;8.33;5.67;;;;;;;24.80;77.58;99023.11;4146077;84;21086;-85
2022/07/27 11:09:41;;;;;;;7.12;5.67;;;;;;;25.01;76.07;99020.09;4028559;85;5619402;-82
2022/07/27 11:15:55;;;;;;;6.45;5.67;;;;;;;25.57;74.97;99015.23;4097330;86;21038;-81
2022/07/27 11:21:59;;;;;;;5.50;4.83;;;;;;;26.12;73.74;99001.81;4100896;86;21034;-82
2022/07/27 11:28:08;;;;;;;7.05;5.28;;;;;;;26.77;72.19;98984.56;4162118;85;21090;-82
2022/07/27 11:34:12;;;;;;;8.20;5.97;;;;;;;26.76;71.21;98976.78;4091377;86;20993;-81
2022/07/27 11:40:15;;;;;;;7.95;6.22;;;;;;;26.59;70.26;98970.69;4131674;85;21067;-82
2022/07/27 11:46:25;;;;;;;5.90;4.47;;;;;;;26.56;68.27;98968.20;4116785;85;21051;-82
2022/07/27 11:52:27;;;;;;;6.03;4.97;;;;;;;26.44;67.72;98965.67;4125819;85;21556;-82
2022/07/27 11:58:29;;;;;;;4.25;3.85;;;;;;;26.14;66.96;98958.63;4186090;84;21496;-82
2022/07/27 12:04:37;;;;;;;5.65;4.30;;;;;;;25.93;66.11;98961.09;4118677;85;21507;-82
2022/07/27 12:10:38;;;;;;;6.83;4.10;;;;;;;25.74;65.36;98956.11;4115169;85;21005;-81
2022/07/27 12:16:40;;;;;;;8.18;4.42;;;;;;;25.47;64.79;98956.27;4147759;85;21019;-82
2022/07/27 12:22:51;;;;;;;8.70;4.90;;;;;;;25.43;64.56;98954.28;4166841;85;21491;-82
2022/07/27 12:29:11;;;;;;;7.72;5.33;;;;;;;25.15;64.02;98950.05;4092135;86;21011;-82
2022/07/27 12:35:29;;;;;;;5.08;3.98;;;;;;;25.10;63.98;98947.88;4126627;85;21069;-82
2022/07/27 12:41:36;;;;;;;8.30;5.62;;;;;;;25.08;63.56;98956.75;4102131;86;21931;-85
2022/07/27 12:47:41;;;;;;;5.92;4.75;;;;;;;24.91;61.98;98949.20;4128909;85;21034;-82
2022/07/27 12:53:42;;;;;;;6.30;4.58;;;;;;;24.71;62.74;98941.95;4075587;86;21526;-83
2022/07/27 12:59:46;;;;;;;5.95;4.60;;;;;;;24.87;63.34;98946.55;4130080;85;21043;-84
2022/07/27 13:05:47;;;;;;;6.83;4.70;;;;;;;24.88;63.33;98939.73;4124792;85;21067;-83
2022/07/27 13:11:49;;;;;;;6.67;5.12;;;;;;;24.76;62.77;98936.48;4135414;85;20996;-83
2022/07/27 13:17:50;;;;;;;8.28;5.35;;;;;;;24.62;62.53;98930.91;4141232;85;21094;-83
2022/07/27 13:23:51;;;;;;;6.90;5.40;;;;;;;24.55;62.59;98933.27;4133608;85;21564;-83
2022/07/27 13:29:54;;;;;;;11.20;5.12;;;;;;;24.54;62.73;98940.87;4137003;85;21059;-84
2022/07/27 13:35:55;;;;;;;6.97;4.87;;;;;;;24.47;61.97;98941.83;4115724;85;21076;-83
2022/07/27 13:41:56;;;;;;;9.13;5.72;;;;;;;24.36;62.64;98941.53;4116398;85;22006;-83
2022/07/27 13:47:58;;;;;;;7.60;5.60;;;;;;;24.28;62.49;98931.91;4120580;85;21102;-83
2022/07/27 13:53:59;;;;;;;7.03;4.97;;;;;;;24.02;62.78;98939.87;4122388;85;21561;-82
2022/07/27 14:00:01;;;;;;;8.28;5.58;;;;;;;23.96;62.63;98926.94;4120420;85;21059;-83
2022/07/27 14:06:02;;;;;;;7.33;4.97;;;;;;;24.05;61.30;98923.55;4118296;85;21618;-83
2022/07/27 14:12:04;;;;;;;8.08;5.22;;;;;;;23.89;62.57;98897.27;4124235;85;21092;-84
2022/07/27 14:18:06;;;;;;;9.53;4.90;;;;;;;24.05;62.76;98916.56;4140266;85;21011;-83
2022/07/27 14:24:07;;;;;;;5.15;4.60;;;;;;;23.98;62.56;98911.27;4075662;86;21686;-82
2022/07/27 14:30:10;;;;;;;5.75;4.55;;;;;;;23.95;62.43;98908.59;4168808;85;21114;-83
2022/07/27 14:36:12;;;;;;;7.10;5.08;;;;;;;24.02;62.14;98906.92;4155488;84;21022;-82
2022/07/27 14:42:13;;;;;;;6.17;5.35;;;;;;;23.98;62.00;98908.48;4147539;85;21414;-84
2022/07/27 14:48:17;;;;;;;7.80;5.05;;;;;;;24.00;62.29;98909.41;4138653;85;21047;-83
2022/07/27 14:54:18;;;;;;;6.60;5.08;;;;;;;23.90;62.12;98908.59;4141191;85;21042;-83
2022/07/27 15:00:20;;;;;;;8.13;5.12;;;;;;;23.77;61.68;98910.79;4138288;85;21030;-83
2022/07/27 15:06:21;;;;;;;6.80;5.15;;;;;;;23.64;61.78;98906.57;4137665;85;21038;-82
2022/07/27 15:12:23;;;;;;;6.17;4.22;;;;;;;23.62;62.07;98911.23;4147566;85;21117;-84
2022/07/27 15:18:24;;;;;;;6.50;5.10;;;;;;;23.64;62.06;98905.96;4180325;85;21030;-84
2022/07/27 15:24:25;;;;;;;5.45;4.65;;;;;;;23.52;62.17;98896.33;4171617;84;21110;-84
2022/07/27 15:30:27;;;;;;;5.62;4.83;;;;;;;23.48;62.34;98892.28;4165883;85;21082;-84
2022/07/27 15:36:29;;;;;;;7.45;5.20;;;;;;;23.43;62.06;98887.94;4168063;85;21047;-83
2022/07/27 15:42:30;;;;;;;5.78;4.80;;;;;;;23.24;62.13;98887.86;4121289;85;21046;-84
2022/07/27 15:48:32;;;;;;;5.45;4.45;;;;;;;23.20;62.82;98891.43;4164674;84;21080;-83
2022/07/27 15:54:33;;;;;;;6.40;5.33;;;;;;;23.20;62.98;98893.44;4116191;85;21042;-82
2022/07/27 16:00:36;;;;;;;9.58;5.70;;;;;;;23.20;62.67;98886.45;4105376;85;21042;-84
2022/07/27 16:06:38;;;;;;;6.75;6.05;;;;;;;23.21;63.05;98883.81;4097569;86;21089;-83
2022/07/27 16:12:39;;;;;;;6.72;5.45;;;;;;;23.17;62.81;98879.79;4098892;85;21058;-83
2022/07/27 16:18:40;;;;;;;8.88;5.30;;;;;;;23.10;62.65;98874.48;4105978;86;21582;-83
2022/07/27 16:24:42;;;;;;;6.83;5.50;;;;;;;23.14;62.81;98872.95;4108330;86;21113;-83
2022/07/27 16:30:43;;;;;;;7.75;5.17;;;;;;;23.19;62.79;98874.50;4108360;85;21687;-83
2022/07/27 16:36:45;;;;;;;6.65;5.67;;;;;;;23.19;62.75;98871.70;4097856;85;21105;-82
2022/07/27 16:42:47;;;;;;;7.35;5.42;;;;;;;23.20;63.06;98871.09;4115565;85;21583;-83
2022/07/27 16:48:50;;;;;;;6.87;5.03;;;;;;;23.17;63.30;98867.83;4099596;86;21072;-83
2022/07/27 16:54:52;;;;;;;6.08;4.85;;;;;;;23.09;62.89;98866.57;4116300;85;21970;-83
2022/07/27 17:00:54;;;;;;;9.10;5.50;;;;;;;22.96;62.69;98860.33;3971170;86;10000235;-84
2022/07/27 17:06:56;;;;;;;6.20;5.37;;;;;;;22.84;63.31;98868.98;4083470;86;22035;-84
2022/07/27 17:12:57;;;;;;;7.42;5.47;;;;;;;22.72;63.38;98870.48;4114887;85;21047;-84
2022/07/27 17:18:58;;;;;;;6.15;4.92;;;;;;;22.63;63.86;98872.61;4114996;85;21050;-84
2022/07/27 17:25:05;;;;;;;7.78;6.00;;;;;;;22.58;63.86;98873.20;4120728;85;21055;-85
2022/07/27 17:31:11;;;;;;;7.97;5.50;;;;;;;22.55;63.69;98867.78;4151435;85;21054;-83
2022/07/27 17:37:15;;;;;;;6.20;5.28;;;;;;;22.48;63.81;98872.98;4092358;86;21023;-84
2022/07/27 17:43:16;;;;;;;7.62;5.20;;;;;;;22.37;64.03;98880.98;4072618;86;21467;-83
2022/07/27 17:49:18;;;;;;;7.58;5.20;;;;;;;22.17;64.42;98876.98;4127102;85;21020;-84
2022/07/27 17:55:19;;;;;;;9.83;5.95;;;;;;;22.00;64.71;98876.42;4087093;86;21573;-82
2022/07/27 18:01:21;;;;;;;10.53;6.00;;;;;;;21.91;64.95;98888.11;4017787;85;10000017;-83
2022/07/27 18:07:22;;;;;;;7.60;5.55;;;;;;;21.75;65.47;98894.65;4125137;85;21079;-83
2022/07/27 18:13:24;;;;;;;7.80;5.70;;;;;;;21.62;66.13;98896.66;4106467;85;21119;-83
2022/07/27 18:19:25;;;;;;;8.25;6.65;;;;;;;21.49;66.39;98894.52;4154215;85;21956;-83
2022/07/27 18:25:27;;;;;;;7.85;6.62;;;;;;;21.35;67.08;98907.53;4073855;86;21441;-83
2022/07/27 18:31:28;;;;;;;8.48;6.37;;;;;;;21.20;67.62;98916.99;4090712;86;21050;-83
2022/07/27 18:37:29;;;;;;;13.20;8.63;;;;;;;20.97;68.43;98935.41;4073761;86;21015;-83
2022/07/27 18:43:33;;;;;;;11.10;7.90;;;;;;;20.43;69.38;98949.97;4081733;86;21610;-83
2022/07/27 18:49:35;;;;;;;8.53;6.05;;;;;;;20.35;70.59;98964.50;4073810;86;21036;-83
2022/07/27 18:55:37;;;;;;;7.28;5.05;;;;;;;20.23;70.70;98966.80;4126288;85;21018;-83
2022/07/27 19:01:38;;;;;;;6.50;4.00;;;;;;;20.26;70.72;98974.89;3973543;86;9999489;-83
2022/07/27 19:07:41;;;;;;;7.05;4.10;;;;;;;20.26;70.48;98969.93;4162344;85;21027;-83
2022/07/27 19:13:42;;;;;;;4.33;3.02;;;;;;;20.21;70.55;98975.42;4129343;85;20957;-84
2022/07/27 19:19:43;;;;;;;5.40;3.60;;;;;;;20.15;70.60;98987.67;4184695;84;21015;-84
2022/07/27 19:25:46;;;;;;;5.35;2.60;;;;;;;20.07;71.09;98995.23;4116437;84;21498;-83
2022/07/27 19:31:48;;;;;;;3.67;2.70;;;;;;;19.94;71.21;99001.33;4144704;85;21051;-83
2022/07/27 19:37:49;;;;;;;6.70;2.80;;;;;;;19.81;71.45;99014.39;4132794;85;21090;-84
2022/07/27 19:43:50;;;;;;;6.05;2.83;;;;;;;19.64;71.63;99017.77;4132841;85;21117;-83
2022/07/27 19:49:52;;;;;;;4.30;2.77;;;;;;;19.50;72.13;99025.06;4119608;85;21040;-83
2022/07/27 19:55:58;;;;;;;4.92;2.65;;;;;;;19.43;72.27;99026.64;4109514;85;21593;-84
2022/07/27 20:02:00;;;;;;;;;;;;;;;19.15;72.76;99024.50;4080793;85;21035;-83
2022/07/27 20:08:01;;;;;;;6.30;2.80;;;;;;;19.04;75.09;99022.56;4136400;85;20521;-83
2022/07/27 20:14:04;;;;;;;5.67;2.25;;;;;;;18.95;74.88;99031.30;4137594;85;21575;-82
2022/07/27 20:20:07;;;;;;;5.17;2.70;;;;;;;18.94;75.35;99042.98;4124628;85;21519;-82
2022/07/27 20:26:08;;;;;;;5.17;3.00;;;;;;;18.91;74.97;99053.55;4127437;85;21893;-81
2022/07/27 20:32:11;;;;;;;4.65;3.12;;;;;;;18.93;75.43;99058.67;4142240;85;21555;-82
2022/07/27 20:38:13;;;;;;;4.08;2.75;;;;;;;18.90;75.74;99058.15;4127995;85;21015;-82
2022/07/27 20:44:14;;;;;;;6.87;2.67;;;;;;;18.79;76.34;99062.54;4125079;85;21078;-82
2022/07/27 20:50:15;;;;;;;5.45;2.98;;;;;;;18.71;76.93;99069.44;4124600;85;21025;-83
2022/07/27 20:56:17;;;;;;;9.63;2.90;;;;;;;18.73;77.66;99073.93;4143357;85;21078;-83
2022/07/27 21:02:18;;;;;;;4.70;2.70;;;;;;;18.76;78.42;99082.02;4131606;85;21039;-83
2022/07/27 21:08:19;;;;;;;5.22;2.60;;;;;;;18.66;78.21;99089.34;4135218;85;21499;-83
2022/07/27 21:14:20;;;;;;;5.67;2.80;;;;;;;18.58;78.34;99085.14;4120904;85;21003;-83
2022/07/27 21:20:22;;;;;;;5.55;2.80;;;;;;;18.61;78.89;99087.05;4131608;85;22284;-83
2022/07/27 21:26:23;;;;;;;5.50;2.75;;;;;;;18.57;78.56;99089.89;4151788;85;21088;-83
2022/07/27 21:32:24;;;;;;;5.95;2.77;;;;;;;18.56;79.09;99104.97;4173346;85;21559;-83
2022/07/27 21:38:25;;;;;;;5.42;3.17;;;;;;;18.60;79.40;99100.75;4124842;85;21693;-83
2022/07/27 21:44:27;;;;;;;5.87;2.98;;;;;;;18.55;79.88;99103.41;4153491;85;22298;-83
2022/07/27 21:50:28;;;;;;;4.15;2.90;;;;;;;18.48;80.67;99099.97;4168765;85;21050;-83
2022/07/27 21:56:30;;;;;;;5.20;2.80;;;;;;;18.44;80.81;99111.15;4159833;85;21036;-82
2022/07/27 22:02:31;;;;;;;5.87;3.37;;;;;;;18.38;80.78;99112.84;4189877;85;21023;-82
2022/07/27 22:08:33;;;;;;;3.45;3.10;;;;;;;18.36;81.27;99119.97;4162077;85;21629;-82
2022/07/27 22:14:35;;;;;;;7.53;4.40;;;;;;;18.38;82.30;99127.30;4155759;85;21074;-83
2022/07/27 22:20:36;;;;;;;3.62;2.62;;;;;;;18.34;82.64;99139.80;4158216;85;21067;-82
2022/07/27 22:26:38;;;;;;;5.58;3.87;;;;;;;18.34;82.66;99134.25;4150649;85;21066;-84
2022/07/27 22:32:39;;;;;;;5.08;3.55;;;;;;;18.25;82.83;99149.27;4144511;85;22039;-82
2022/07/27 22:38:42;;;;;;;6.45;3.90;;;;;;;18.32;83.63;99159.45;4134174;85;21012;-83
2022/07/27 22:44:43;;;;;;;5.40;3.62;;;;;;;18.30;83.83;99164.63;4076344;85;21107;-82
2022/07/27 22:50:44;;;;;;;9.78;6.10;;;;;;;18.31;84.29;99160.05;4114822;86;21550;-82
2022/07/27 22:56:46;;;;;;;8.90;5.35;;;;;;;18.23;83.94;99164.73;4140846;85;21066;-83
2022/07/27 23:02:47;;;;;;;12.40;5.58;;;;;;;18.17;84.15;99175.52;4097658;86;21910;-82
2022/07/27 23:08:49;;;;;;;6.62;4.85;;;;;;;18.14;84.59;99172.21;4078083;86;21917;-82
2022/07/27 23:14:51;;;;;;;6.83;4.53;;;;;;;18.06;84.85;99171.34;4090659;86;21077;-83
2022/07/27 23:20:53;;;;;;;5.05;4.25;;;;;;;17.93;84.79;99171.77;4132017;85;21095;-83
2022/07/27 23:26:56;;;;;;;7.05;4.03;;;;;;;17.81;84.90;99172.34;4136503;85;21040;-82
2022/07/27 23:32:57;;;;;;;6.60;3.40;;;;;;;17.79;85.10;99180.30;4119231;85;21056;-83
2022/07/27 23:38:58;;;;;;;3.65;2.70;;;;;;;17.73;85.07;99177.82;4075493;86;21054;-82
2022/07/27 23:45:00;;;;;;;6.37;2.87;;;;;;;17.66;84.74;99187.59;4076867;86;21042;-82
2022/07/27 23:51:02;;;;;;;4.55;2.92;;;;;;;17.62;84.06;99193.18;4075428;86;21055;-83
2022/07/27 23:57:04;;;;;;;4.45;2.52;;;;;;;17.50;83.69;99193.75;4110319;85;21032;-82
